sensor_id;sensor_type;location;lat;lon;timestamp;temperature;humidity
19060;DHT22;9663;48.996;8.334;2023-04-15T00:01:25;9.20;44.50
19060;DHT22;9663;48.996;8.334;2023-04-15T00:03:52;8.80;44.00
19060;DHT22;9663;48.996;8.334;2023-04-15T00:06:20;7.30;43.40
19060;DHT22;9663;48.996;8.334;2023-04-15T00:08:46;8.90;44.40
19060;DHT22;9663;48.996;8.334;2023-04-15T00:11:13;7.60;44.20
19060;DHT22;9663;48.996;8.334;2023-04-15T00:13:39;5.90;43.50
19060;DHT22;9663;48.996;8.334;2023-04-15T00:16:06;6.40;43.70
19060;DHT22;9663;48.996;8.334;2023-04-15T00:18:33;8.30;44.80
19060;DHT22;9663;48.996;8.334;2023-04-15T00:20:59;7.50;44.40
19060;DHT22;9663;48.996;8.334;2023-04-15T00:23:25;6.20;43.80
19060;DHT22;9663;48.996;8.334;2023-04-15T00:25:51;7.40;44.50
19060;DHT22;9663;48.996;8.334;2023-04-15T00:28:17;8.00;44.80
19060;DHT22;9663;48.996;8.334;2023-04-15T00:30:43;8.60;45.20
19060;DHT22;9663;48.996;8.334;2023-04-15T00:33:09;7.50;44.90
19060;DHT22;9663;48.996;8.334;2023-04-15T00:35:35;7.50;44.70
19060;DHT22;9663;48.996;8.334;2023-04-15T00:38:02;7.50;44.40
19060;DHT22;9663;48.996;8.334;2023-04-15T00:40:32;8.30;45.30
19060;DHT22;9663;48.996;8.334;2023-04-15T00:42:58;7.50;45.30
19060;DHT22;9663;48.996;8.334;2023-04-15T00:45:25;7.40;44.80
19060;DHT22;9663;48.996;8.334;2023-04-15T00:47:50;8.20;45.60
19060;DHT22;9663;48.996;8.334;2023-04-15T00:50:16;6.90;44.70
19060;DHT22;9663;48.996;8.334;2023-04-15T00:52:42;6.40;44.60
19060;DHT22;9663;48.996;8.334;2023-04-15T00:55:08;7.40;45.00
19060;DHT22;9663;48.996;8.334;2023-04-15T00:57:35;7.40;45.30
19060;DHT22;9663;48.996;8.334;2023-04-15T01:00:01;6.60;45.40
19060;DHT22;9663;48.996;8.334;2023-04-15T01:02:27;6.30;45.40
19060;DHT22;9663;48.996;8.334;2023-04-15T01:04:53;7.40;45.70
19060;DHT22;9663;48.996;8.334;2023-04-15T01:07:18;7.00;45.90
19060;DHT22;9663;48.996;8.334;2023-04-15T01:09:44;8.20;46.20
19060;DHT22;9663;48.996;8.334;2023-04-15T01:12:11;8.60;46.40
19060;DHT22;9663;48.996;8.334;2023-04-15T01:14:39;7.80;46.00
19060;DHT22;9663;48.996;8.334;2023-04-15T01:17:05;7.70;46.00
19060;DHT22;9663;48.996;8.334;2023-04-15T01:19:31;7.70;46.00
19060;DHT22;9663;48.996;8.334;2023-04-15T01:21:57;7.70;45.90
19060;DHT22;9663;48.996;8.334;2023-04-15T01:24:25;8.40;46.80
19060;DHT22;9663;48.996;8.334;2023-04-15T01:26:52;7.80;46.20
19060;DHT22;9663;48.996;8.334;2023-04-15T01:29:18;7.70;46.00
19060;DHT22;9663;48.996;8.334;2023-04-15T01:31:51;9.50;46.60
19060;DHT22;9663;48.996;8.334;2023-04-15T01:34:18;8.00;46.20
19060;DHT22;9663;48.996;8.334;2023-04-15T01:36:44;7.90;45.90
19060;DHT22;9663;48.996;8.334;2023-04-15T01:39:09;7.90;46.00
19060;DHT22;9663;48.996;8.334;2023-04-15T01:41:35;9.00;47.00
19060;DHT22;9663;48.996;8.334;2023-04-15T01:44:01;7.80;46.10
19060;DHT22;9663;48.996;8.334;2023-04-15T01:46:26;6.20;45.30
19060;DHT22;9663;48.996;8.334;2023-04-15T01:48:52;7.80;45.90
19060;DHT22;9663;48.996;8.334;2023-04-15T01:51:18;7.50;45.90
19060;DHT22;9663;48.996;8.334;2023-04-15T01:53:44;7.70;46.00
19060;DHT22;9663;48.996;8.334;2023-04-15T01:56:10;6.90;45.60
19060;DHT22;9663;48.996;8.334;2023-04-15T01:58:36;6.80;45.70
19060;DHT22;9663;48.996;8.334;2023-04-15T02:01:02;9.00;46.70
19060;DHT22;9663;48.996;8.334;2023-04-15T02:03:29;6.30;46.00
19060;DHT22;9663;48.996;8.334;2023-04-15T02:05:54;7.80;46.40
19060;DHT22;9663;48.996;8.334;2023-04-15T02:08:21;9.10;47.20
19060;DHT22;9663;48.996;8.334;2023-04-15T02:10:46;8.20;46.90
19060;DHT22;9663;48.996;8.334;2023-04-15T02:13:12;8.00;46.90
19060;DHT22;9663;48.996;8.334;2023-04-15T02:15:38;6.30;46.20
19060;DHT22;9663;48.996;8.334;2023-04-15T02:18:04;6.70;46.20
19060;DHT22;9663;48.996;8.334;2023-04-15T02:20:29;6.90;46.30
19060;DHT22;9663;48.996;8.334;2023-04-15T02:22:55;8.20;47.30
19060;DHT22;9663;48.996;8.334;2023-04-15T02:25:21;6.90;46.10
19060;DHT22;9663;48.996;8.334;2023-04-15T02:27:47;6.80;46.80
19060;DHT22;9663;48.996;8.334;2023-04-15T02:30:13;6.70;46.90
19060;DHT22;9663;48.996;8.334;2023-04-15T02:32:39;6.50;46.90
19060;DHT22;9663;48.996;8.334;2023-04-15T02:35:08;7.40;48.00
19060;DHT22;9663;48.996;8.334;2023-04-15T02:37:35;7.80;47.90
19060;DHT22;9663;48.996;8.334;2023-04-15T02:40:08;6.80;47.70
19060;DHT22;9663;48.996;8.334;2023-04-15T02:42:41;6.70;47.60
19060;DHT22;9663;48.996;8.334;2023-04-15T02:45:09;6.70;48.10
19060;DHT22;9663;48.996;8.334;2023-04-15T02:47:36;6.80;47.40
19060;DHT22;9663;48.996;8.334;2023-04-15T02:50:06;7.40;48.70
19060;DHT22;9663;48.996;8.334;2023-04-15T02:52:33;7.30;47.80
19060;DHT22;9663;48.996;8.334;2023-04-15T02:54:59;6.60;47.60
19060;DHT22;9663;48.996;8.334;2023-04-15T02:57:27;6.70;47.30
19060;DHT22;9663;48.996;8.334;2023-04-15T02:59:56;6.80;48.00
19060;DHT22;9663;48.996;8.334;2023-04-15T03:02:21;6.40;47.40
19060;DHT22;9663;48.996;8.334;2023-04-15T03:04:47;6.70;47.80
19060;DHT22;9663;48.996;8.334;2023-04-15T03:07:13;6.70;47.80
19060;DHT22;9663;48.996;8.334;2023-04-15T03:09:39;7.60;48.30
19060;DHT22;9663;48.996;8.334;2023-04-15T03:12:05;6.20;48.00
19060;DHT22;9663;48.996;8.334;2023-04-15T03:14:31;6.70;48.00
19060;DHT22;9663;48.996;8.334;2023-04-15T03:16:57;6.00;47.60
19060;DHT22;9663;48.996;8.334;2023-04-15T03:19:24;6.80;48.10
19060;DHT22;9663;48.996;8.334;2023-04-15T03:21:50;6.60;48.40
19060;DHT22;9663;48.996;8.334;2023-04-15T03:24:16;8.00;48.40
19060;DHT22;9663;48.996;8.334;2023-04-15T03:26:42;6.70;48.20
19060;DHT22;9663;48.996;8.334;2023-04-15T03:29:08;6.60;48.30
19060;DHT22;9663;48.996;8.334;2023-04-15T03:31:34;6.60;48.20
19060;DHT22;9663;48.996;8.334;2023-04-15T03:33:59;8.30;49.00
19060;DHT22;9663;48.996;8.334;2023-04-15T03:36:27;8.30;49.00
19060;DHT22;9663;48.996;8.334;2023-04-15T03:38:54;7.60;48.60
19060;DHT22;9663;48.996;8.334;2023-04-15T03:41:21;5.80;47.50
19060;DHT22;9663;48.996;8.334;2023-04-15T03:43:46;6.50;48.00
19060;DHT22;9663;48.996;8.334;2023-04-15T03:46:12;5.10;47.40
19060;DHT22;9663;48.996;8.334;2023-04-15T03:48:38;6.50;48.20
19060;DHT22;9663;48.996;8.334;2023-04-15T03:51:03;6.90;48.60
19060;DHT22;9663;48.996;8.334;2023-04-15T03:53:29;7.70;48.90
19060;DHT22;9663;48.996;8.334;2023-04-15T03:55:55;6.30;48.30
19060;DHT22;9663;48.996;8.334;2023-04-15T03:58:21;6.00;48.20
19060;DHT22;9663;48.996;8.334;2023-04-15T04:00:46;7.40;48.50
19060;DHT22;9663;48.996;8.334;2023-04-15T04:03:12;6.10;48.10
19060;DHT22;9663;48.996;8.334;2023-04-15T04:05:38;6.80;48.90
19060;DHT22;9663;48.996;8.334;2023-04-15T04:08:05;6.10;48.60
19060;DHT22;9663;48.996;8.334;2023-04-15T04:10:32;5.50;48.50
19060;DHT22;9663;48.996;8.334;2023-04-15T04:12:57;6.10;48.80
19060;DHT22;9663;48.996;8.334;2023-04-15T04:15:23;6.60;49.10
19060;DHT22;9663;48.996;8.334;2023-04-15T04:17:48;7.80;49.60
19060;DHT22;9663;48.996;8.334;2023-04-15T04:20:14;6.00;48.10
19060;DHT22;9663;48.996;8.334;2023-04-15T04:22:40;6.70;48.90
19060;DHT22;9663;48.996;8.334;2023-04-15T04:25:07;5.90;48.70
19060;DHT22;9663;48.996;8.334;2023-04-15T04:27:34;5.90;48.60
19060;DHT22;9663;48.996;8.334;2023-04-15T04:30:00;7.50;49.60
19060;DHT22;9663;48.996;8.334;2023-04-15T04:32:26;7.10;49.20
19060;DHT22;9663;48.996;8.334;2023-04-15T04:34:52;5.80;48.90
19060;DHT22;9663;48.996;8.334;2023-04-15T04:37:18;4.90;48.70
19060;DHT22;9663;48.996;8.334;2023-04-15T04:39:43;7.60;50.00
19060;DHT22;9663;48.996;8.334;2023-04-15T04:42:09;7.40;50.10
19060;DHT22;9663;48.996;8.334;2023-04-15T04:44:35;5.30;49.50
19060;DHT22;9663;48.996;8.334;2023-04-15T04:47:00;5.70;49.40
19060;DHT22;9663;48.996;8.334;2023-04-15T04:49:26;4.90;49.10
19060;DHT22;9663;48.996;8.334;2023-04-15T04:51:51;5.70;49.60
19060;DHT22;9663;48.996;8.334;2023-04-15T04:54:17;5.80;49.70
19060;DHT22;9663;48.996;8.334;2023-04-15T04:56:43;6.60;50.10
19060;DHT22;9663;48.996;8.334;2023-04-15T04:59:09;6.90;50.20
19060;DHT22;9663;48.996;8.334;2023-04-15T05:01:34;5.90;49.70
19060;DHT22;9663;48.996;8.334;2023-04-15T05:04:00;5.30;49.30
19060;DHT22;9663;48.996;8.334;2023-04-15T05:06:26;5.40;49.30
19060;DHT22;9663;48.996;8.334;2023-04-15T05:08:52;5.90;49.50
19060;DHT22;9663;48.996;8.334;2023-04-15T05:11:17;6.50;49.80
19060;DHT22;9663;48.996;8.334;2023-04-15T05:13:43;7.20;50.10
19060;DHT22;9663;48.996;8.334;2023-04-15T05:16:09;5.90;49.60
19060;DHT22;9663;48.996;8.334;2023-04-15T05:18:34;6.10;49.80
19060;DHT22;9663;48.996;8.334;2023-04-15T05:21:01;6.10;49.80
19060;DHT22;9663;48.996;8.334;2023-04-15T05:23:27;6.20;49.90
19060;DHT22;9663;48.996;8.334;2023-04-15T05:25:52;6.30;49.80
19060;DHT22;9663;48.996;8.334;2023-04-15T05:28:18;7.80;50.60
19060;DHT22;9663;48.996;8.334;2023-04-15T05:30:44;5.40;49.40
19060;DHT22;9663;48.996;8.334;2023-04-15T05:33:10;8.00;50.70
19060;DHT22;9663;48.996;8.334;2023-04-15T05:35:36;6.60;50.70
19060;DHT22;9663;48.996;8.334;2023-04-15T05:38:01;6.60;50.00
19060;DHT22;9663;48.996;8.334;2023-04-15T05:40:27;6.80;50.00
19060;DHT22;9663;48.996;8.334;2023-04-15T05:42:54;7.20;50.20
19060;DHT22;9663;48.996;8.334;2023-04-15T05:45:20;7.00;49.90
19060;DHT22;9663;48.996;8.334;2023-04-15T05:47:46;7.10;50.00
19060;DHT22;9663;48.996;8.334;2023-04-15T05:50:11;7.20;49.90
19060;DHT22;9663;48.996;8.334;2023-04-15T05:52:37;7.30;50.00
19060;DHT22;9663;48.996;8.334;2023-04-15T05:55:03;7.50;49.60
19060;DHT22;9663;48.996;8.334;2023-04-15T05:57:29;7.60;49.90
19060;DHT22;9663;48.996;8.334;2023-04-15T05:59:54;8.80;50.40
19060;DHT22;9663;48.996;8.334;2023-04-15T06:02:21;6.20;49.10
19060;DHT22;9663;48.996;8.334;2023-04-15T06:04:47;7.20;49.40
19060;DHT22;9663;48.996;8.334;2023-04-15T06:07:12;7.80;49.20
19060;DHT22;9663;48.996;8.334;2023-04-15T06:09:38;8.70;50.10
19060;DHT22;9663;48.996;8.334;2023-04-15T06:12:04;7.90;49.70
19060;DHT22;9663;48.996;8.334;2023-04-15T06:14:31;7.20;49.40
19060;DHT22;9663;48.996;8.334;2023-04-15T06:16:56;8.10;49.90
19060;DHT22;9663;48.996;8.334;2023-04-15T06:19:22;8.20;49.80
19060;DHT22;9663;48.996;8.334;2023-04-15T06:21:48;7.00;49.20
19060;DHT22;9663;48.996;8.334;2023-04-15T06:24:13;8.40;49.90
19060;DHT22;9663;48.996;8.334;2023-04-15T06:26:39;8.40;50.10
19060;DHT22;9663;48.996;8.334;2023-04-15T06:29:05;8.40;49.30
19060;DHT22;9663;48.996;8.334;2023-04-15T06:31:30;8.60;49.80
19060;DHT22;9663;48.996;8.334;2023-04-15T06:33:56;8.70;49.80
19060;DHT22;9663;48.996;8.334;2023-04-15T06:36:22;8.80;49.80
19060;DHT22;9663;48.996;8.334;2023-04-15T06:38:47;9.00;49.80
19060;DHT22;9663;48.996;8.334;2023-04-15T06:41:13;10.30;50.50
19060;DHT22;9663;48.996;8.334;2023-04-15T06:43:38;9.30;49.80
19060;DHT22;9663;48.996;8.334;2023-04-15T06:46:04;9.70;49.90
19060;DHT22;9663;48.996;8.334;2023-04-15T06:48:30;10.00;49.90
19060;DHT22;9663;48.996;8.334;2023-04-15T06:50:56;9.60;49.60
19060;DHT22;9663;48.996;8.334;2023-04-15T06:53:24;9.80;49.70
19060;DHT22;9663;48.996;8.334;2023-04-15T06:55:52;10.50;50.20
19060;DHT22;9663;48.996;8.334;2023-04-15T06:58:18;10.20;49.60
19060;DHT22;9663;48.996;8.334;2023-04-15T07:00:43;10.40;49.70
19060;DHT22;9663;48.996;8.334;2023-04-15T07:03:10;10.60;49.50
19060;DHT22;9663;48.996;8.334;2023-04-15T07:05:37;10.70;49.30
19060;DHT22;9663;48.996;8.334;2023-04-15T07:08:03;10.90;49.20
19060;DHT22;9663;48.996;8.334;2023-04-15T07:10:29;11.10;49.10
19060;DHT22;9663;48.996;8.334;2023-04-15T07:12:55;10.10;48.30
19060;DHT22;9663;48.996;8.334;2023-04-15T07:15:21;12.10;49.10
19060;DHT22;9663;48.996;8.334;2023-04-15T07:17:47;11.60;48.70
19060;DHT22;9663;48.996;8.334;2023-04-15T07:20:13;11.60;48.50
19060;DHT22;9663;48.996;8.334;2023-04-15T07:22:39;12.50;48.60
19060;DHT22;9663;48.996;8.334;2023-04-15T07:25:05;11.70;48.10
19060;DHT22;9663;48.996;8.334;2023-04-15T07:27:32;12.40;48.30
19060;DHT22;9663;48.996;8.334;2023-04-15T07:29:57;11.70;48.00
19060;DHT22;9663;48.996;8.334;2023-04-15T07:32:23;11.70;48.10
19060;DHT22;9663;48.996;8.334;2023-04-15T07:34:49;11.80;48.00
19060;DHT22;9663;48.996;8.334;2023-04-15T07:37:14;12.20;48.10
19060;DHT22;9663;48.996;8.334;2023-04-15T07:39:40;11.90;48.00
19060;DHT22;9663;48.996;8.334;2023-04-15T07:42:07;11.90;47.90
19060;DHT22;9663;48.996;8.334;2023-04-15T07:44:33;12.00;48.00
19060;DHT22;9663;48.996;8.334;2023-04-15T07:46:58;12.00;48.00
19060;DHT22;9663;48.996;8.334;2023-04-15T07:49:24;12.20;48.10
19060;DHT22;9663;48.996;8.334;2023-04-15T07:51:50;12.20;48.00
19060;DHT22;9663;48.996;8.334;2023-04-15T07:54:15;12.30;48.00
19060;DHT22;9663;48.996;8.334;2023-04-15T07:56:41;12.40;48.00
19060;DHT22;9663;48.996;8.334;2023-04-15T07:59:07;12.50;47.90
19060;DHT22;9663;48.996;8.334;2023-04-15T08:01:34;12.60;47.90
19060;DHT22;9663;48.996;8.334;2023-04-15T08:04:01;12.70;47.60
19060;DHT22;9663;48.996;8.334;2023-04-15T08:06:27;12.70;47.50
19060;DHT22;9663;48.996;8.334;2023-04-15T08:08:53;12.70;47.50
19060;DHT22;9663;48.996;8.334;2023-04-15T08:11:20;12.80;47.40
19060;DHT22;9663;48.996;8.334;2023-04-15T08:13:46;12.90;47.40
19060;DHT22;9663;48.996;8.334;2023-04-15T08:16:23;13.10;47.50
19060;DHT22;9663;48.996;8.334;2023-04-15T08:18:51;13.10;47.50
19060;DHT22;9663;48.996;8.334;2023-04-15T08:21:19;12.90;47.20
19060;DHT22;9663;48.996;8.334;2023-04-15T08:23:47;13.30;47.20
19060;DHT22;9663;48.996;8.334;2023-04-15T08:26:17;13.50;47.10
19060;DHT22;9663;48.996;8.334;2023-04-15T08:28:44;13.70;47.10
19060;DHT22;9663;48.996;8.334;2023-04-15T08:31:12;13.80;46.90
19060;DHT22;9663;48.996;8.334;2023-04-15T08:33:39;13.80;46.80
19060;DHT22;9663;48.996;8.334;2023-04-15T08:36:05;14.00;46.80
19060;DHT22;9663;48.996;8.334;2023-04-15T08:38:32;14.30;46.80
19060;DHT22;9663;48.996;8.334;2023-04-15T08:40:59;16.30;47.70
19060;DHT22;9663;48.996;8.334;2023-04-15T08:43:33;15.00;46.80
19060;DHT22;9663;48.996;8.334;2023-04-15T08:46:00;14.90;46.30
19060;DHT22;9663;48.996;8.334;2023-04-15T08:48:28;16.10;46.60
19060;DHT22;9663;48.996;8.334;2023-04-15T08:50:56;15.00;45.50
19060;DHT22;9663;48.996;8.334;2023-04-15T08:53:23;15.50;45.60
19060;DHT22;9663;48.996;8.334;2023-04-15T08:55:51;15.30;45.40
19060;DHT22;9663;48.996;8.334;2023-04-15T08:58:18;15.40;45.60
19060;DHT22;9663;48.996;8.334;2023-04-15T09:00:44;16.80;46.10
19060;DHT22;9663;48.996;8.334;2023-04-15T09:03:10;14.90;44.80
19060;DHT22;9663;48.996;8.334;2023-04-15T09:05:36;15.80;45.10
19060;DHT22;9663;48.996;8.334;2023-04-15T09:08:03;15.80;45.00
19060;DHT22;9663;48.996;8.334;2023-04-15T09:10:30;15.90;45.10
19060;DHT22;9663;48.996;8.334;2023-04-15T09:12:58;16.10;45.20
19060;DHT22;9663;48.996;8.334;2023-04-15T09:15:26;16.30;45.20
19060;DHT22;9663;48.996;8.334;2023-04-15T09:17:53;16.40;44.90
19060;DHT22;9663;48.996;8.334;2023-04-15T09:20:21;16.60;44.70
19060;DHT22;9663;48.996;8.334;2023-04-15T09:22:48;16.80;44.70
19060;DHT22;9663;48.996;8.334;2023-04-15T09:27:50;17.00;44.30
19060;DHT22;9663;48.996;8.334;2023-04-15T09:30:17;17.10;44.10
19060;DHT22;9663;48.996;8.334;2023-04-15T09:32:54;17.00;44.00
19060;DHT22;9663;48.996;8.334;2023-04-15T09:35:21;17.20;43.90
19060;DHT22;9663;48.996;8.334;2023-04-15T09:37:49;17.30;43.90
19060;DHT22;9663;48.996;8.334;2023-04-15T09:40:33;17.30;43.90
19060;DHT22;9663;48.996;8.334;2023-04-15T09:43:01;17.40;43.70
19060;DHT22;9663;48.996;8.334;2023-04-15T09:45:31;18.80;44.50
19060;DHT22;9663;48.996;8.334;2023-04-15T09:48:15;17.60;43.90
19060;DHT22;9663;48.996;8.334;2023-04-15T09:50:42;17.70;43.90
19060;DHT22;9663;48.996;8.334;2023-04-15T09:53:09;17.30;43.50
19060;DHT22;9663;48.996;8.334;2023-04-15T09:55:39;17.80;43.60
19060;DHT22;9663;48.996;8.334;2023-04-15T09:58:26;17.20;43.20
19060;DHT22;9663;48.996;8.334;2023-04-15T10:00:54;17.90;43.20
19060;DHT22;9663;48.996;8.334;2023-04-15T10:03:23;17.90;43.20
19060;DHT22;9663;48.996;8.334;2023-04-15T10:05:53;17.90;43.20
19060;DHT22;9663;48.996;8.334;2023-04-15T10:08:25;18.00;43.40
19060;DHT22;9663;48.996;8.334;2023-04-15T10:10:53;18.10;43.50
19060;DHT22;9663;48.996;8.334;2023-04-15T10:13:22;18.10;43.10
19060;DHT22;9663;48.996;8.334;2023-04-15T10:15:52;18.20;43.10
19060;DHT22;9663;48.996;8.334;2023-04-15T10:18:23;18.20;43.20
19060;DHT22;9663;48.996;8.334;2023-04-15T10:20:52;18.20;43.00
19060;DHT22;9663;48.996;8.334;2023-04-15T10:23:19;19.70;43.60
19060;DHT22;9663;48.996;8.334;2023-04-15T10:25:47;18.40;43.00
19060;DHT22;9663;48.996;8.334;2023-04-15T10:28:15;18.30;43.00
19060;DHT22;9663;48.996;8.334;2023-04-15T10:30:42;18.80;43.30
19060;DHT22;9663;48.996;8.334;2023-04-15T10:33:08;18.60;43.00
19060;DHT22;9663;48.996;8.334;2023-04-15T10:35:35;18.70;42.90
19060;DHT22;9663;48.996;8.334;2023-04-15T10:38:02;18.70;42.70
19060;DHT22;9663;48.996;8.334;2023-04-15T10:40:52;18.80;42.50
19060;DHT22;9663;48.996;8.334;2023-04-15T10:43:26;18.10;42.00
19060;DHT22;9663;48.996;8.334;2023-04-15T10:45:52;18.80;42.20
19060;DHT22;9663;48.996;8.334;2023-04-15T10:48:18;18.30;42.10
19060;DHT22;9663;48.996;8.334;2023-04-15T10:50:55;20.30;44.00
19060;DHT22;9663;48.996;8.334;2023-04-15T10:53:28;19.00;42.50
19060;DHT22;9663;48.996;8.334;2023-04-15T10:55:56;19.20;42.40
19060;DHT22;9663;48.996;8.334;2023-04-15T10:58:25;18.90;42.20
19060;DHT22;9663;48.996;8.334;2023-04-15T11:00:52;19.40;42.40
19060;DHT22;9663;48.996;8.334;2023-04-15T11:03:38;19.60;42.50
19060;DHT22;9663;48.996;8.334;2023-04-15T11:06:05;19.70;42.00
19060;DHT22;9663;48.996;8.334;2023-04-15T11:08:57;20.00;42.10
19060;DHT22;9663;48.996;8.334;2023-04-15T11:14:39;20.50;41.40
19060;DHT22;9663;48.996;8.334;2023-04-15T11:17:05;20.70;41.50
19060;DHT22;9663;48.996;8.334;2023-04-15T11:19:38;20.30;41.10
19060;DHT22;9663;48.996;8.334;2023-04-15T11:22:10;20.80;41.60
19060;DHT22;9663;48.996;8.334;2023-04-15T11:24:46;21.70;41.00
19060;DHT22;9663;48.996;8.334;2023-04-15T11:27:22;21.10;40.20
19060;DHT22;9663;48.996;8.334;2023-04-15T11:29:48;21.20;40.30
19060;DHT22;9663;48.996;8.334;2023-04-15T11:32:13;21.30;40.60
19060;DHT22;9663;48.996;8.334;2023-04-15T11:34:39;21.50;40.40
19060;DHT22;9663;48.996;8.334;2023-04-15T11:37:05;21.70;40.30
19060;DHT22;9663;48.996;8.334;2023-04-15T11:39:32;21.70;40.00
19060;DHT22;9663;48.996;8.334;2023-04-15T11:41:58;21.80;40.00
19060;DHT22;9663;48.996;8.334;2023-04-15T11:44:23;23.10;40.60
19060;DHT22;9663;48.996;8.334;2023-04-15T11:46:49;21.90;39.70
19060;DHT22;9663;48.996;8.334;2023-04-15T11:49:28;22.10;39.40
19060;DHT22;9663;48.996;8.334;2023-04-15T11:51:55;22.20;38.50
19060;DHT22;9663;48.996;8.334;2023-04-15T11:54:21;21.70;38.80
19060;DHT22;9663;48.996;8.334;2023-04-15T11:56:50;22.70;39.30
19060;DHT22;9663;48.996;8.334;2023-04-15T11:59:17;22.70;38.70
19060;DHT22;9663;48.996;8.334;2023-04-15T12:01:43;22.80;38.60
19060;DHT22;9663;48.996;8.334;2023-04-15T12:04:16;23.00;38.20
19060;DHT22;9663;48.996;8.334;2023-04-15T12:06:45;23.10;37.00
19060;DHT22;9663;48.996;8.334;2023-04-15T12:09:15;23.10;37.20
19060;DHT22;9663;48.996;8.334;2023-04-15T12:11:56;23.20;37.50
19060;DHT22;9663;48.996;8.334;2023-04-15T12:14:29;23.20;36.90
19060;DHT22;9663;48.996;8.334;2023-04-15T12:19:28;23.90;36.80
19060;DHT22;9663;48.996;8.334;2023-04-15T12:22:03;23.50;36.60
19060;DHT22;9663;48.996;8.334;2023-04-15T12:24:35;24.30;36.70
19060;DHT22;9663;48.996;8.334;2023-04-15T12:27:12;25.00;36.40
19060;DHT22;9663;48.996;8.334;2023-04-15T12:29:40;25.10;36.40
19060;DHT22;9663;48.996;8.334;2023-04-15T12:32:16;25.50;36.60
19060;DHT22;9663;48.996;8.334;2023-04-15T12:34:52;25.90;35.20
19060;DHT22;9663;48.996;8.334;2023-04-15T12:37:21;26.00;34.50
19060;DHT22;9663;48.996;8.334;2023-04-15T12:39:48;27.10;35.00
19060;DHT22;9663;48.996;8.334;2023-04-15T12:42:15;27.40;33.40
19060;DHT22;9663;48.996;8.334;2023-04-15T12:44:41;27.40;33.70
19060;DHT22;9663;48.996;8.334;2023-04-15T12:47:09;28.50;34.50
19060;DHT22;9663;48.996;8.334;2023-04-15T12:49:35;28.00;33.40
19060;DHT22;9663;48.996;8.334;2023-04-15T12:52:02;28.10;33.50
19060;DHT22;9663;48.996;8.334;2023-04-15T12:54:29;28.20;32.90
19060;DHT22;9663;48.996;8.334;2023-04-15T12:56:56;27.80;31.80
19060;DHT22;9663;48.996;8.334;2023-04-15T12:59:23;28.20;31.70
19060;DHT22;9663;48.996;8.334;2023-04-15T13:01:49;27.40;31.00
19060;DHT22;9663;48.996;8.334;2023-04-15T13:04:16;26.40;30.80
19060;DHT22;9663;48.996;8.334;2023-04-15T13:06:43;26.30;31.00
19060;DHT22;9663;48.996;8.334;2023-04-15T13:09:09;25.80;31.10
19060;DHT22;9663;48.996;8.334;2023-04-15T13:11:35;25.40;31.30
19060;DHT22;9663;48.996;8.334;2023-04-15T13:14:02;24.90;31.20
19060;DHT22;9663;48.996;8.334;2023-04-15T13:16:30;24.50;31.70
19060;DHT22;9663;48.996;8.334;2023-04-15T13:18:58;24.00;31.90
19060;DHT22;9663;48.996;8.334;2023-04-15T13:21:24;23.60;32.30
19060;DHT22;9663;48.996;8.334;2023-04-15T13:23:49;23.40;32.50
19060;DHT22;9663;48.996;8.334;2023-04-15T13:26:16;22.40;32.30
19060;DHT22;9663;48.996;8.334;2023-04-15T13:28:42;23.70;33.10
19060;DHT22;9663;48.996;8.334;2023-04-15T13:31:08;22.40;32.70
19060;DHT22;9663;48.996;8.334;2023-04-15T13:33:33;22.20;32.80
19060;DHT22;9663;48.996;8.334;2023-04-15T13:35:59;21.80;32.90
19060;DHT22;9663;48.996;8.334;2023-04-15T13:38:25;21.60;33.30
19060;DHT22;9663;48.996;8.334;2023-04-15T13:40:51;22.60;34.30
19060;DHT22;9663;48.996;8.334;2023-04-15T13:43:17;21.20;34.00
19060;DHT22;9663;48.996;8.334;2023-04-15T13:45:43;21.10;34.20
19060;DHT22;9663;48.996;8.334;2023-04-15T13:48:09;20.40;34.20
19060;DHT22;9663;48.996;8.334;2023-04-15T13:50:34;20.60;34.40
19060;DHT22;9663;48.996;8.334;2023-04-15T13:53:00;20.50;34.60
19060;DHT22;9663;48.996;8.334;2023-04-15T13:55:26;20.40;34.70
19060;DHT22;9663;48.996;8.334;2023-04-15T13:57:52;21.20;35.40
19060;DHT22;9663;48.996;8.334;2023-04-15T14:00:18;19.80;34.80
19060;DHT22;9663;48.996;8.334;2023-04-15T14:02:45;20.00;35.20
19060;DHT22;9663;48.996;8.334;2023-04-15T14:05:10;19.90;35.30
19060;DHT22;9663;48.996;8.334;2023-04-15T14:07:36;19.80;35.40
19060;DHT22;9663;48.996;8.334;2023-04-15T14:10:03;19.70;35.50
19060;DHT22;9663;48.996;8.334;2023-04-15T14:12:29;19.60;35.60
19060;DHT22;9663;48.996;8.334;2023-04-15T14:14:54;19.50;35.70
19060;DHT22;9663;48.996;8.334;2023-04-15T14:17:20;18.30;35.20
19060;DHT22;9663;48.996;8.334;2023-04-15T14:19:46;19.10;35.60
19060;DHT22;9663;48.996;8.334;2023-04-15T14:22:11;19.10;35.90
19060;DHT22;9663;48.996;8.334;2023-04-15T14:24:37;19.00;36.00
19060;DHT22;9663;48.996;8.334;2023-04-15T14:27:03;18.90;36.20
19060;DHT22;9663;48.996;8.334;2023-04-15T14:29:28;18.60;36.10
19060;DHT22;9663;48.996;8.334;2023-04-15T14:31:55;19.40;37.30
19060;DHT22;9663;48.996;8.334;2023-04-15T14:34:21;18.20;36.10
19060;DHT22;9663;48.996;8.334;2023-04-15T14:36:50;17.80;36.00
19060;DHT22;9663;48.996;8.334;2023-04-15T14:39:18;18.40;36.40
19060;DHT22;9663;48.996;8.334;2023-04-15T14:41:44;18.30;36.50
19060;DHT22;9663;48.996;8.334;2023-04-15T14:44:10;19.30;37.10
19060;DHT22;9663;48.996;8.334;2023-04-15T14:46:37;18.60;36.80
19060;DHT22;9663;48.996;8.334;2023-04-15T14:49:03;18.10;36.70
19060;DHT22;9663;48.996;8.334;2023-04-15T14:51:29;17.10;36.20
19060;DHT22;9663;48.996;8.334;2023-04-15T14:53:56;18.10;36.80
19060;DHT22;9663;48.996;8.334;2023-04-15T14:56:21;18.00;36.90
19060;DHT22;9663;48.996;8.334;2023-04-15T14:58:47;18.00;36.80
19060;DHT22;9663;48.996;8.334;2023-04-15T15:01:13;17.70;36.90
19060;DHT22;9663;48.996;8.334;2023-04-15T15:03:39;18.00;37.00
19060;DHT22;9663;48.996;8.334;2023-04-15T15:06:05;18.00;37.00
19060;DHT22;9663;48.996;8.334;2023-04-15T15:08:31;18.00;36.90
19060;DHT22;9663;48.996;8.334;2023-04-15T15:10:56;18.00;36.70
19060;DHT22;9663;48.996;8.334;2023-04-15T15:13:22;18.90;37.00
19060;DHT22;9663;48.996;8.334;2023-04-15T15:15:48;18.10;36.60
19060;DHT22;9663;48.996;8.334;2023-04-15T15:18:14;18.60;36.70
19060;DHT22;9663;48.996;8.334;2023-04-15T15:20:43;17.20;36.10
19060;DHT22;9663;48.996;8.334;2023-04-15T15:23:08;17.80;36.50
19060;DHT22;9663;48.996;8.334;2023-04-15T15:25:34;17.90;36.60
19060;DHT22;9663;48.996;8.334;2023-04-15T15:28:00;17.90;36.50
19060;DHT22;9663;48.996;8.334;2023-04-15T15:30:25;17.80;36.50
19060;DHT22;9663;48.996;8.334;2023-04-15T15:32:51;17.80;36.60
19060;DHT22;9663;48.996;8.334;2023-04-15T15:35:17;20.20;37.80
19060;DHT22;9663;48.996;8.334;2023-04-15T15:37:43;17.70;36.50
19060;DHT22;9663;48.996;8.334;2023-04-15T15:40:10;17.70;36.60
19060;DHT22;9663;48.996;8.334;2023-04-15T15:42:36;17.60;36.50
19060;DHT22;9663;48.996;8.334;2023-04-15T15:45:03;17.70;36.60
19060;DHT22;9663;48.996;8.334;2023-04-15T15:47:29;17.60;36.50
19060;DHT22;9663;48.996;8.334;2023-04-15T15:49:55;17.60;36.50
19060;DHT22;9663;48.996;8.334;2023-04-15T15:52:20;17.40;36.50
19060;DHT22;9663;48.996;8.334;2023-04-15T15:54:47;17.00;36.30
19060;DHT22;9663;48.996;8.334;2023-04-15T15:57:12;17.60;36.70
19060;DHT22;9663;48.996;8.334;2023-04-15T15:59:38;17.50;36.80